createdAt,value
2023-05-04T00:00:56.515Z,14.60
2023-05-04T00:06:01.030Z,14.50
2023-05-04T00:11:04.202Z,14.50
2023-05-04T00:16:10.482Z,14.30
2023-05-04T00:21:15.559Z,14.20
2023-05-04T00:26:18.659Z,14.00
2023-05-04T00:31:22.038Z,13.90
2023-05-04T00:36:26.628Z,13.90
2023-05-04T00:41:29.672Z,13.80
2023-05-04T00:46:33.496Z,13.80
2023-05-04T00:51:39.033Z,13.70
2023-05-04T00:56:43.345Z,13.70
2023-05-04T01:01:46.447Z,13.70
2023-05-04T01:06:59.385Z,13.60
2023-05-04T01:12:07.626Z,13.50
2023-05-04T01:17:10.884Z,13.40
2023-05-04T01:22:15.413Z,13.30
2023-05-04T01:27:24.335Z,13.20
2023-05-04T01:32:29.471Z,13.10
2023-05-04T01:37:35.306Z,13.00
2023-05-04T01:42:38.455Z,12.90
2023-05-04T01:47:41.609Z,12.70
2023-05-04T01:52:46.113Z,12.60
2023-05-04T01:57:49.230Z,12.40
2023-05-04T02:02:52.368Z,12.20
2023-05-04T02:07:57.006Z,12.10
2023-05-04T02:13:00.599Z,12.10
2023-05-04T02:18:03.862Z,12.00
2023-05-04T02:23:08.458Z,12.00
2023-05-04T02:28:11.565Z,12.00
2023-05-04T02:33:14.724Z,11.90
2023-05-04T02:38:19.239Z,11.90
2023-05-04T02:43:22.341Z,11.80
2023-05-04T02:48:25.973Z,11.80
2023-05-04T02:53:30.455Z,11.70
2023-05-04T02:58:33.522Z,11.70
2023-05-04T03:03:36.782Z,11.70
2023-05-04T03:08:41.249Z,11.70
2023-05-04T03:13:44.346Z,11.70
2023-05-04T03:24:09.557Z,11.60
2023-05-04T03:29:12.695Z,11.50
2023-05-04T03:34:15.831Z,11.40
2023-05-04T03:39:20.300Z,11.40
2023-05-04T03:44:23.704Z,11.30
2023-05-04T03:49:27.085Z,11.20
2023-05-04T03:54:31.545Z,11.20
2023-05-04T03:59:35.150Z,11.20
2023-05-04T04:04:38.258Z,11.20
2023-05-04T04:09:42.792Z,11.20
2023-05-04T04:14:46.278Z,11.10
2023-05-04T04:19:49.368Z,11.10
2023-05-04T04:24:53.978Z,11.10
2023-05-04T04:29:57.367Z,11.00
2023-05-04T04:35:00.500Z,11.00
2023-05-04T04:40:07.786Z,10.90
2023-05-04T04:45:11.686Z,10.90
2023-05-04T04:50:14.886Z,10.90
2023-05-04T04:55:20.280Z,11.00
2023-05-04T05:00:24.208Z,11.00
2023-05-04T05:05:28.058Z,11.10
2023-05-04T05:10:33.645Z,11.10
2023-05-04T05:15:36.752Z,11.20
2023-05-04T05:20:39.832Z,11.30
2023-05-04T05:25:45.159Z,11.40
2023-05-04T05:30:49.686Z,11.60
2023-05-04T05:35:52.950Z,11.70
2023-05-04T05:40:57.463Z,11.90
2023-05-04T05:46:00.565Z,12.00
2023-05-04T05:51:04.208Z,12.10
2023-05-04T05:56:08.916Z,12.30
2023-05-04T06:01:12.040Z,12.40
2023-05-04T06:06:15.433Z,12.50
2023-05-04T06:11:20.320Z,12.60
2023-05-04T06:16:23.495Z,12.80
2023-05-04T06:21:26.707Z,13.00
2023-05-04T06:26:31.353Z,13.20
2023-05-04T06:31:34.714Z,13.40
2023-05-04T06:36:37.946Z,13.60
2023-05-04T06:41:42.558Z,13.70
2023-05-04T06:46:45.935Z,13.90
2023-05-04T06:51:49.136Z,14.10
2023-05-04T06:56:53.662Z,14.30
2023-05-04T07:01:56.902Z,14.50
2023-05-04T07:07:00.148Z,14.70
2023-05-04T07:12:05.374Z,14.90
2023-05-04T07:17:10.049Z,15.10
2023-05-04T07:22:13.554Z,15.20
2023-05-04T07:27:18.255Z,15.40
2023-05-04T07:32:21.604Z,15.60
2023-05-04T07:37:24.920Z,15.80
2023-05-04T07:42:30.530Z,16.00
2023-05-04T07:47:33.676Z,16.20
2023-05-04T07:52:36.842Z,16.40
2023-05-04T07:57:41.350Z,16.50
2023-05-04T08:02:44.649Z,16.70
2023-05-04T08:07:48.162Z,16.90
2023-05-04T08:12:52.690Z,17.00
2023-05-04T08:17:56.318Z,17.20
2023-05-04T08:22:59.679Z,17.40
2023-05-04T08:28:04.220Z,17.60
2023-05-04T08:33:07.544Z,17.80
2023-05-04T08:38:10.763Z,18.00
2023-05-04T08:43:15.304Z,18.20
2023-05-04T08:48:18.471Z,18.40
2023-05-04T08:53:23.899Z,18.60
2023-05-04T08:58:29.061Z,18.80
2023-05-04T09:03:32.537Z,18.80
2023-05-04T09:08:36.301Z,19.00
2023-05-04T09:13:42.704Z,19.20
2023-05-04T09:18:46.756Z,19.40
2023-05-04T09:23:51.349Z,19.60
2023-05-04T09:28:56.212Z,19.80
2023-05-04T09:34:09.270Z,20.00
2023-05-04T09:39:13.360Z,20.20
2023-05-04T09:44:22.490Z,20.40
2023-05-04T09:49:33.004Z,20.60
2023-05-04T09:54:38.881Z,20.70
2023-05-04T09:59:44.009Z,20.80
2023-05-04T10:04:47.589Z,20.90
2023-05-04T10:09:51.948Z,20.90
2023-05-04T10:14:57.022Z,21.00
2023-05-04T10:20:13.113Z,21.10
2023-05-04T10:25:44.979Z,21.30
2023-05-04T10:30:49.493Z,21.50
2023-05-04T10:35:53.820Z,21.70
2023-05-04T10:40:57.382Z,21.80
2023-05-04T10:46:02.562Z,21.90
2023-05-04T10:51:06.372Z,22.00
2023-05-04T10:56:09.517Z,22.20
2023-05-04T11:01:14.505Z,22.30
2023-05-04T11:06:23.208Z,22.40
2023-05-04T11:11:27.384Z,22.50
2023-05-04T11:16:31.866Z,22.60
2023-05-04T11:21:35.084Z,22.60
2023-05-04T11:26:47.318Z,22.70
2023-05-04T11:31:59.715Z,22.70
2023-05-04T11:37:05.802Z,22.80
2023-05-04T11:42:09.689Z,22.90
2023-05-04T11:47:14.889Z,22.80
2023-05-04T11:52:18.015Z,22.80
2023-05-04T11:57:23.880Z,22.90
2023-05-04T12:02:28.479Z,22.90
2023-05-04T12:07:31.797Z,23.00
2023-05-04T12:12:37.937Z,23.00
2023-05-04T12:17:43.226Z,23.10
2023-05-04T12:22:46.447Z,23.10
2023-05-04T12:27:49.808Z,23.20
2023-05-04T12:32:54.396Z,23.20
2023-05-04T12:37:57.628Z,23.30
2023-05-04T12:43:00.852Z,23.30
2023-05-04T12:48:05.782Z,23.30
2023-05-04T12:53:09.041Z,23.30
2023-05-04T12:58:12.310Z,23.30
2023-05-04T13:03:18.045Z,23.30
2023-05-04T13:08:21.394Z,23.40
2023-05-04T13:13:28.506Z,23.40
2023-05-04T13:18:33.544Z,23.50
2023-05-04T13:23:36.972Z,23.50
2023-05-04T13:28:40.067Z,23.60
2023-05-04T13:33:45.402Z,23.60
2023-05-04T13:38:48.525Z,23.70
2023-05-04T13:43:51.799Z,23.70
2023-05-04T13:48:57.164Z,23.70
2023-05-04T13:54:02.455Z,23.70
2023-05-04T13:59:05.781Z,23.80
2023-05-04T14:04:10.514Z,23.80
2023-05-04T14:09:13.654Z,23.90
2023-05-04T14:14:16.930Z,23.90
2023-05-04T14:19:21.412Z,23.90
2023-05-04T14:24:25.812Z,24.00
2023-05-04T14:29:29.009Z,24.10
2023-05-04T14:34:33.748Z,24.20
2023-05-04T14:39:37.057Z,24.20
2023-05-04T14:44:40.188Z,24.20
2023-05-04T14:49:44.828Z,24.20
2023-05-04T14:54:48.017Z,24.20
2023-05-04T14:59:51.225Z,24.30
2023-05-04T15:04:56.549Z,24.30
2023-05-04T15:09:59.891Z,24.30
2023-05-04T15:15:03.026Z,24.20
2023-05-04T15:20:09.917Z,24.10
2023-05-04T15:25:13.329Z,24.10
2023-05-04T15:30:16.878Z,24.10
2023-05-04T15:35:21.762Z,24.10
2023-05-04T15:40:25.038Z,24.10
2023-05-04T15:45:28.146Z,24.00
2023-05-04T15:50:33.308Z,24.00
2023-05-04T15:55:36.484Z,24.00
2023-05-04T16:00:39.604Z,23.90
2023-05-04T16:05:44.070Z,24.00
2023-05-04T16:10:48.179Z,23.90
2023-05-04T16:15:52.144Z,23.90
2023-05-04T16:20:56.624Z,23.80
2023-05-04T16:25:59.775Z,23.80
2023-05-04T16:31:05.209Z,23.80
2023-05-04T16:36:10.906Z,23.70
2023-05-04T16:41:14.068Z,23.70
2023-05-04T16:46:17.512Z,23.70
2023-05-04T16:51:22.053Z,23.60
2023-05-04T16:56:25.135Z,23.60
2023-05-04T17:01:28.261Z,23.60
2023-05-04T17:06:32.853Z,23.60
2023-05-04T17:11:36.010Z,23.50
2023-05-04T17:16:39.545Z,23.40
2023-05-04T17:21:44.081Z,23.30
2023-05-04T17:26:47.267Z,23.30
2023-05-04T17:31:50.407Z,23.20
2023-05-04T17:36:54.959Z,23.10
2023-05-04T17:41:58.359Z,23.10
2023-05-04T17:47:01.565Z,23.00
2023-05-04T17:52:06.392Z,23.00
2023-05-04T17:57:09.621Z,22.90
2023-05-04T18:02:12.836Z,22.80
2023-05-04T18:07:17.317Z,22.80
2023-05-04T18:12:20.628Z,22.80
2023-05-04T18:17:23.735Z,22.80
2023-05-04T18:22:28.300Z,22.70
2023-05-04T18:27:33.459Z,22.70
2023-05-04T18:32:36.868Z,22.70
2023-05-04T18:37:41.470Z,22.70
2023-05-04T18:42:44.592Z,22.60
2023-05-04T18:47:47.790Z,22.50
2023-05-04T18:52:54.040Z,22.40
2023-05-04T18:57:57.313Z,22.20
2023-05-04T19:03:00.564Z,22.10
2023-05-04T19:08:05.290Z,22.00
2023-05-04T19:13:08.463Z,21.80
2023-05-04T19:18:12.032Z,21.70
2023-05-04T19:23:16.771Z,21.50
2023-05-04T19:28:20.225Z,21.40
2023-05-04T19:33:30.385Z,21.30
2023-05-04T19:38:41.326Z,21.10
2023-05-04T19:43:44.625Z,21.00
2023-05-04T19:48:48.012Z,20.80
2023-05-04T19:53:52.906Z,20.60
2023-05-04T19:58:56.206Z,20.40
2023-05-04T20:03:59.385Z,20.20
2023-05-04T20:09:04.456Z,20.00
2023-05-04T20:14:08.136Z,19.80
2023-05-04T20:19:11.352Z,19.70
2023-05-04T20:24:16.123Z,19.50
2023-05-04T20:29:19.285Z,19.40
2023-05-04T20:34:22.456Z,19.30
2023-05-04T20:39:27.208Z,19.30
2023-05-04T20:44:30.414Z,19.20
2023-05-04T20:49:33.746Z,19.10
2023-05-04T20:54:39.423Z,19.00
2023-05-04T20:59:42.553Z,18.90
2023-05-04T21:04:48.547Z,18.90
2023-05-04T21:09:57.425Z,18.70
2023-05-04T21:15:00.650Z,18.60
2023-05-04T21:20:04.235Z,18.50
2023-05-04T21:25:09.458Z,18.40
2023-05-04T21:30:12.982Z,18.20
2023-05-04T21:35:16.473Z,18.10
2023-05-04T21:40:21.201Z,17.90
2023-05-04T21:45:24.350Z,17.70
2023-05-04T21:50:27.584Z,17.50
2023-05-04T21:55:32.202Z,17.40
2023-05-04T22:00:35.367Z,17.30
2023-05-04T22:05:38.703Z,17.30
2023-05-04T22:10:43.299Z,17.20
2023-05-04T22:15:50.257Z,17.20
2023-05-04T22:20:53.748Z,17.20
2023-05-04T22:25:58.474Z,17.10
2023-05-04T22:31:01.820Z,17.10
2023-05-04T22:36:05.359Z,17.10
2023-05-04T22:41:09.959Z,17.00
2023-05-04T22:46:16.955Z,17.00
2023-05-04T22:51:20.356Z,16.90
2023-05-04T22:56:24.849Z,16.80
2023-05-04T23:01:30.038Z,16.80
2023-05-04T23:06:34.073Z,16.70
2023-05-04T23:11:38.586Z,16.60
2023-05-04T23:16:42.327Z,16.50
2023-05-04T23:21:45.495Z,16.50
2023-05-04T23:26:50.331Z,16.40
2023-05-04T23:31:53.957Z,16.30
2023-05-04T23:36:57.109Z,16.30
2023-05-04T23:42:01.568Z,16.20
2023-05-04T23:47:04.763Z,16.10
2023-05-04T23:52:07.974Z,16.00
2023-05-04T23:57:12.491Z,15.90
